Tiempo atmosférico en la estación meteorológica de Plasencia, Cáceres (420 m.)



Fecha
DESCASC
Temp. máxima en grados centígrados (hora)
DESCASC
Temp. mínima en grados centígrados (hora)
DESCASC
Temp. media en grados centígrados
DESCASC
Racha de viento máxima en m/sg (hora)
DESCASC
Velocidad máxima media en intervalos de 10 minutos(hora)
DESCASC
Precipitaciones diarias en mm
DESCASC
Precipitaciones de 00:00 a 06:00 en mm
DESCASC
Precipitaciones de 06:00 a 12:00 en mm
DESCASC
Precipitaciones de 12:00 a 18:00 en mm
DESCASC
Precipitaciones de 18:00 a 24:00 en mm
DESCASC
23-08-2020 36.3 (16:50) 19.9 (00:00) 28.1 11.39 (03:00) 4.17 (00:20) 0 0 0 0 0
16-09-2020 31.4 (15:00) 17.6 (00:00) 24.5 6.67 (12:30) 2.22 (12:00) 0 0 0 0 0
15-09-2020 31.7 (17:20) 17.9 (00:00) 24.8 6.11 (16:40) 3.33 (18:10) 0 0 0 0 0
14-09-2020 32.7 (17:00) 22.1 (00:00) 27.4 8.06 (19:10) 3.61 (19:00) 0 0 0 0 0
13-09-2020 35.9 (18:00) 23.7 (00:00) 29.8 10.28 (12:50) 3.61 (13:10) 0 0 0 0 0
12-09-2020 36.4 (16:20) 22.5 (00:00) 29.5 8.33 (13:20) 3.61 (07:50) 0 0 0 0 0
11-09-2020 35.9 (16:20) 21.7 (00:00) 28.8 8.61 (06:50) 3.61 (06:50) 0 0 0 0 0
10-09-2020 35.1 (17:40) 18.8 (00:00) 26.9 7.78 (09:20) 3.06 (09:10) 0 0 0 0 0
09-09-2020 33.5 (18:00) 18.3 (00:00) 25.9 8.61 (07:50) 3.06 (07:40) 0 0 0 0 0
08-09-2020 30.3 (17:50) 18 (00:00) 24.1 11.94 (11:20) 4.17 (11:20) 0 0 0 0 0
07-09-2020 32.7 (17:40) 18.7 (08:00) 25.7 10 (22:20) 4.17 (23:10) 0 0 0 0 0
06-09-2020 36.5 (17:10) 22.6 (00:00) 29.6 7.5 (09:30) 2.78 (18:10) 0 0 0 0 0
05-09-2020 37.4 (16:40) 22 (00:00) 29.7 7.22 (10:20) 2.5 (09:50) 0 0 0 0 0
03-09-2020 36.5 (17:20) 20.5 (00:00) 28.5 6.67 (07:30) 2.5 (10:50) 0 0 0 0 0
22-08-2020 34.8 (18:10) 18.2 (00:00) 26.5 11.11 (03:30) 4.44 (23:20) 0 0 0 0 0
24-08-2020 37.9 (18:40) 22 (00:00) 30 8.33 (00:40) 3.06 (00:30) 0 0 0 0 0
25-08-2020 37.8 (18:10) 20.4 (00:00) 29.1 7.5 (15:20) 2.78 (16:40) 0 0 0 0 0
26-08-2020 38.8 (17:40) 21.8 (00:00) 30.3 6.94 (16:50) 2.78 (16:30) 0 0 0 0 0
27-08-2020 37.8 (17:10) 21.6 (00:00) 29.7 10.28 (23:30) 3.89 (19:30) 0 0 0 0 0
28-08-2020 32.7 (17:30) 22 (00:00) 27.4 12.78 (06:10) 4.72 (05:30) 0 0 0 0 0
29-08-2020 27.4 (17:30) 15.7 (00:00) 21.5 15.56 (01:20) 5 (01:50) 0 0 0 0 0
30-08-2020 28.3 (18:10) 15.6 (00:00) 21.9 8.89 (01:30) 3.33 (20:50) 0 0 0 0 0
31-08-2020 30.1 (17:20) 16.8 (00:00) 23.4 8.61 (12:50) 2.78 (11:30) 0 0 0 0 0
01-09-2020 32.2 (17:10) 17.3 (00:00) 24.8 5.83 (15:30) 2.22 (16:50) 0 0 0 0 0
02-09-2020 34.4 (17:50) 18.6 (00:00) 26.5 7.22 (13:30) 2.22 (11:40) 0 0 0 0 0
04-09-2020 36.9 (18:10) 20.7 (00:00) 28.8 9.17 (10:40) 3.33 (07:10) 0 0 0 0 0
20-09-2020 25.3 (18:10) 17.4 (00:00) 21.3 7.22 (19:30) 3.33 (19:30) 0.9 0 0.4 0.5 0
17-09-2020 27.1 (17:30) 17.5 (00:00) 22.3 10.56 (21:10) 3.61 (12:30) 4.5 0.2 0.2 0 4.1
19-09-2020 21.2 (16:50) 16.1 (00:00) 18.7 9.17 (07:00) 4.17 (07:00) 17.7 10 7.7 0 0
18-09-2020 24.1 (13:40) 16.1 (00:00) 20.1 11.39 (18:40) 4.17 (18:40) 21.8 2 0.1 2.3 17.4

Gráficas

Temp. máximas Temp. mínimas Temp. medias Precipitaciones Rachas de viento máximas Velocidades máximas media en intervalos de 10 minutos

Datos horarios

Fecha y hora oficial Temperatura (ºC) Velocidad del viento (km/h) Dirección del viento Racha (km/h) Dirección de racha Precipitación (mm) Presión (hPa) Tendencia (hPa) Humedad (%)
2020-09-20 23:00:00 19.9 5 Noroeste 13 Noroeste 0 -- -- 60
2020-09-20 22:00:00 20.7 3 Noroeste 20 Noroeste 0 -- -- 58
2020-09-20 21:00:00 21.8 8 Oeste 22 Oeste 0 -- -- 53
2020-09-20 20:00:00 23.3 11 Oeste 26 Oeste 0 -- -- 50
2020-09-20 19:00:00 24.5 9 Oeste 20 Oeste 0 -- -- 49
2020-09-20 18:00:00 25.1 9 Oeste 23 Sudoeste 0 -- -- 52
2020-09-20 17:00:00 24.8 4 Noroeste 20 Noroeste 0 -- -- 58
2020-09-20 16:00:00 23.7 10 Oeste 25 Sudoeste 0 -- -- 61
2020-09-20 15:00:00 21.7 9 Oeste 21 Oeste 0 -- -- 72
2020-09-20 14:00:00 20.1 8 Oeste 22 Oeste 0 -- -- 82
2020-09-20 13:00:00 18.7 3 Oeste 19 Oeste 0.5 -- -- 90
2020-09-20 12:00:00 18.7 0 Calma 22 Oeste 0 -- -- 86
2020-09-20 11:00:00 18.8 8 Oeste 19 Oeste 0 -- -- 82
2020-09-20 10:00:00 18 0 Calma 8 Sudoeste 0 -- -- 92
2020-09-20 09:00:00 17.6 0 Calma 10 Oeste 0 -- -- 93
2020-09-20 08:00:00 17.5 0 Calma 8 Sudoeste 0 -- -- 93
2020-09-20 07:00:00 17.5 0 Calma 7 Sudeste 0.4 -- -- 93
2020-09-20 06:00:00 17.7 0 Calma 6 Sudoeste 0 -- -- 90
2020-09-20 05:00:00 17.7 0 Calma -- -- 0 -- -- 89
2020-09-20 04:00:00 17.7 0 Calma -- -- 0 -- -- 89
2020-09-20 03:00:00 17.8 0 Calma 5 Oeste 0 -- -- 88
2020-09-20 02:00:00 17.8 0 Calma -- -- 0 -- -- 87
2020-09-20 01:00:00 18.1 0 Calma -- -- 0 -- -- 83
2020-09-20 00:00:00 17.9 0 Calma -- -- 0 -- -- 84
2020-09-19 23:00:00 18 0 Calma 4 Este 0 -- -- 86
2020-09-19 22:00:00 18.1 0 Calma 14 Noroeste 0 -- -- 86
2020-09-19 21:00:00 18.5 4 Este 12 Este 0 -- -- 76
2020-09-19 20:00:00 18.5 0 Calma 13 Oeste 0 -- -- 82
2020-09-19 19:00:00 18.6 5 Noroeste 18 Noroeste 0 -- -- 76
2020-09-19 18:00:00 19.9 3 Noroeste 10 Oeste 0 -- -- 67
2020-09-19 17:00:00 21 2 Noroeste 15 Norte 0 -- -- 64
2020-09-19 16:00:00 20.7 6 Oeste 20 Oeste 0 -- -- 64
2020-09-19 15:00:00 19.9 9 Oeste 28 Oeste 0 -- -- 68
2020-09-19 14:00:00 19.6 13 Oeste 28 Oeste 0 -- -- 75
2020-09-19 13:00:00 19.2 13 Oeste 26 Sudoeste 0 -- -- 81
2020-09-19 12:00:00 17.5 8 Oeste 28 Sudoeste 2.9 -- -- 97
2020-09-19 11:00:00 16.5 12 Sudoeste 25 Sudoeste 0.6 -- -- 96
2020-09-19 10:00:00 16.5 7 Oeste 21 Oeste 1.6 -- -- 97
2020-09-19 09:00:00 16.5 7 Oeste 23 Sudoeste 0.8 -- -- 97
2020-09-19 08:00:00 16.5 5 Oeste 24 Sudoeste 0.6 -- -- 97
2020-09-19 07:00:00 16.1 15 Oeste 33 Oeste 1.2 -- -- 97
2020-09-19 06:00:00 16.4 9 Oeste 28 Sudoeste 1 -- -- 97
2020-09-19 05:00:00 16.6 6 Sudoeste 20 Sudoeste 1.7 -- -- 97
2020-09-19 04:00:00 16.8 6 Sudoeste 24 Oeste 1.1 -- -- 96
2020-09-19 03:00:00 16.8 5 Sur 22 Sur 2.9 -- -- 95
2020-09-19 02:00:00 17 4 Sur 16 Sur 2.3 -- -- 96
2020-09-19 01:00:00 17.3 3 Sur 23 Sudoeste 1 -- -- 95
2020-09-19 00:00:00 17.1 3 Sudeste 20 Sur 0.1 -- -- 96
2020-09-18 23:00:00 16.4 4 Sudeste 19 Este 0.1 -- -- 97
2020-09-18 22:00:00 16.2 6 Este 26 Este 2.1 -- -- 96
2020-09-18 21:00:00 16.6 4 Sudeste 27 Sudeste 8.1 -- -- 95
2020-09-18 20:00:00 16.9 8 Sudeste 28 Este 1.4 -- -- 92
2020-09-18 19:00:00 18.2 8 Sudeste 41 Sudeste 5.6 -- -- 83
2020-09-18 18:00:00 20.9 10 Sudeste 37 Sudeste 0 -- -- 73
2020-09-18 17:00:00 19.5 9 Sudeste 31 Sudeste 0 -- -- 83
2020-09-18 16:00:00 18.5 4 Sudeste 28 Sudeste 1.1 -- -- 88
2020-09-18 15:00:00 20.4 5 Sudeste 26 Este 1.2 -- -- 75
2020-09-18 14:00:00 24 6 Sudeste 30 Sudeste 0 -- -- 55
2020-09-18 13:00:00 23.2 8 Sudeste 24 Este 0 -- -- 59
2020-09-18 12:00:00 20.4 7 Sudeste 24 Sudeste 0 -- -- 70
2020-09-18 11:00:00 18.1 6 Sudeste 16 Sudeste 0 -- -- 92
2020-09-18 10:00:00 17.6 3 Sudeste 16 Este 0 -- -- 93
2020-09-18 09:00:00 16.5 4 Sudeste 17 Este 0.1 -- -- 96
2020-09-18 08:00:00 16.4 4 Este 17 Sudeste 0 -- -- 97
2020-09-18 07:00:00 16.6 3 Sudeste 11 Sudeste 0 -- -- 95
2020-09-18 06:00:00 17.1 0 Calma 14 Este 0.1 -- -- 96
2020-09-18 05:00:00 17.3 3 Este 12 Este 0.9 -- -- 96
2020-09-18 04:00:00 17.5 0 Calma 22 Sur 1 -- -- 92
2020-09-18 03:00:00 18.3 0 Calma 10 Sur 0 -- -- 92
2020-09-18 02:00:00 18.2 0 Calma 11 Este 0 -- -- 92
2020-09-18 01:00:00 18 4 Este 11 Este 0 -- -- 93
2020-09-18 00:00:00 17.7 4 Este 10 Este 0 -- -- 95
2020-09-17 23:00:00 17.8 0 Calma 15 Oeste 0 -- -- 94
2020-09-17 22:00:00 18.6 6 Oeste 38 Oeste 4.1 -- -- 92
2020-09-17 21:00:00 22.6 0 Calma 12 Oeste 0 -- -- 68
2020-09-17 20:00:00 24 3 Sur 27 Este 0 -- -- 66
2020-09-17 19:00:00 25.7 6 Sudeste 35 Sudeste 0 -- -- 63
2020-09-17 18:00:00 27 10 Sudeste 30 Este 0 -- -- 63
2020-09-17 17:00:00 25.7 9 Sudeste 34 Sudeste 0 -- -- 68
2020-09-17 16:00:00 24.3 4 Sur 24 Este 0 -- -- 69
2020-09-17 15:00:00 23.6 5 Sudeste 31 Este 0 -- -- 73
2020-09-17 14:00:00 23.9 9 Sudeste 32 Sudeste 0 -- -- 68
2020-09-17 13:00:00 25 10 Sudeste 34 Este 0 -- -- 63
2020-09-17 12:00:00 24.3 12 Sudeste 34 Este 0 -- -- 65
2020-09-17 11:00:00 23.7 8 Sudeste 29 Este 0 -- -- 68
2020-09-17 10:00:00 21.7 8 Sudeste 24 Sudeste 0.2 -- -- 73
2020-09-17 09:00:00 22 7 Sudeste 28 Este 0 -- -- 69
2020-09-17 08:00:00 21.6 5 Sudeste 20 Sudeste 0 -- -- 70
2020-09-17 07:00:00 21.9 6 Sudeste 25 Este 0 -- -- 70
2020-09-17 06:00:00 21 0 Calma 14 Sudeste 0.2 -- -- 73
2020-09-17 05:00:00 22.3 5 Este 22 Sudeste 0 -- -- 62
2020-09-17 04:00:00 22.2 5 Este 12 Sudeste 0 -- -- 61
2020-09-17 03:00:00 22.6 0 Calma 11 Este 0 -- -- 59
2020-09-17 02:00:00 23.3 5 Este 13 Este 0 -- -- 58
2020-09-17 01:00:00 23.9 5 Este 13 Este 0 -- -- 54
2020-09-17 00:00:00 24.1 2 Este 6 Este 0 -- -- 53
2020-09-16 23:00:00 25.1 0 Calma 10 Sur 0 -- -- 49
2020-09-16 22:00:00 26.3 4 Nordeste 9 Este 0 -- -- 48
2020-09-16 21:00:00 27 0 Calma 8 Sur 0 -- -- 45
2020-09-16 20:00:00 28.3 2 Sur 7 Sur 0 -- -- 43
2020-09-16 19:00:00 29.3 0 Calma 9 Sur 0 -- -- 42
2020-09-16 18:00:00 30.2 0 Calma 9 Sudeste 0 -- -- 42
2020-09-16 17:00:00 30.6 0 Calma 18 Este 0 -- -- 42
2020-09-16 16:00:00 30.8 3 Sudeste 22 Sudeste 0 -- -- 42
2020-09-16 15:00:00 31.1 5 Sudeste 22 Este 0 -- -- 42
2020-09-16 14:00:00 29.8 5 Sudeste 24 Sudeste 0 -- -- 47
2020-09-16 13:00:00 28.4 7 Sudeste 24 Sudeste 0 -- -- 51
2020-09-16 12:00:00 24.8 8 Sudeste 21 Este 0 -- -- 58
2020-09-16 11:00:00 22.7 3 Sudeste 11 Este 0 -- -- 63
2020-09-16 10:00:00 20.5 5 Este 13 Este 0 -- -- 68
2020-09-16 09:00:00 18.4 5 Nordeste 12 Este 0 -- -- 72
2020-09-16 08:00:00 17.8 0 Calma 5 Sudeste 0 -- -- 73
2020-09-16 07:00:00 18 0 Calma 5 Nordeste 0 -- -- 70
2020-09-16 06:00:00 19 4 Este 12 Este 0 -- -- 67
2020-09-16 05:00:00 19.5 5 Este 15 Este 0 -- -- 64
2020-09-16 04:00:00 20 2 Este 12 Nordeste 0 -- -- 61
2020-09-16 03:00:00 20.8 4 Este 12 Este 0 -- -- 59
2020-09-16 02:00:00 21.3 5 Este 12 Este 0 -- -- 59
2020-09-16 01:00:00 22.1 5 Este 10 Este 0 -- -- 57
2020-09-16 00:00:00 22.8 4 Este 10 Este 0 -- -- 56
2020-09-15 23:00:00 23.8 5 Este 10 Este 0 -- -- 52
2020-09-15 22:00:00 25.3 0 Calma 5 Oeste 0 -- -- 46
2020-09-15 21:00:00 26.6 3 Oeste 9 Noroeste 0 -- -- 45
2020-09-15 20:00:00 28.6 0 Calma 12 Sudoeste 0 -- -- 42
2020-09-15 19:00:00 29.4 4 Oeste 19 Sudoeste 0 -- -- 41
2020-09-15 18:00:00 31.7 5 Sudoeste 17 Sudoeste 0 -- -- 40
2020-09-15 17:00:00 30.6 0 Calma 22 Oeste 0 -- -- 41
2020-09-15 16:00:00 29.6 4 Oeste 16 Sudoeste 0 -- -- 45
2020-09-15 15:00:00 29.3 3 Sur 17 Sur 0 -- -- 46
2020-09-15 14:00:00 28.7 4 Sudeste 17 Sur 0 -- -- 50
2020-09-15 13:00:00 27.1 4 Sur 15 Sudeste 0 -- -- 55
2020-09-15 12:00:00 23.9 3 Sudoeste 12 Oeste 0 -- -- 66
2020-09-15 11:00:00 21.4 0 Calma 7 Oeste 0 -- -- 75
2020-09-15 10:00:00 19.7 2 Oeste 7 Sudoeste 0 -- -- 81
2020-09-15 09:00:00 18.3 0 Calma 0 Calma 0 -- -- 87
2020-09-15 08:00:00 18.4 0 Calma 3 Nordeste 0 -- -- 81
2020-09-15 07:00:00 19.4 0 Calma 5 Nordeste 0 -- -- 80
2020-09-15 06:00:00 19.6 0 Calma 7 Oeste 0 -- -- 76
2020-09-15 05:00:00 19.8 0 Calma 7 Oeste 0 -- -- 84
2020-09-15 04:00:00 20.2 0 Calma 5 Sudeste 0 -- -- 83
2020-09-15 03:00:00 21.2 3 Este 11 Este 0 -- -- 79
2020-09-15 02:00:00 22.2 5 Este 12 Este 0 -- -- 76
2020-09-15 01:00:00 22.4 5 Este 14 Este 0 -- -- 76
2020-09-15 00:00:00 22.4 3 Este 17 Este 0 -- -- 76
2020-09-14 23:00:00 23.4 6 Este 18 Este 0 -- -- 69
2020-09-14 22:00:00 24.9 6 Este 20 Este 0 -- -- 56
2020-09-14 21:00:00 27.3 2 Nordeste 20 Noroeste 0 -- -- 50
2020-09-14 20:00:00 28.7 8 Oeste 29 Oeste 0 -- -- 47
2020-09-14 19:00:00 30.2 13 Oeste 28 Oeste 0 -- -- 45
2020-09-14 18:00:00 30.8 7 Sudoeste 22 Oeste 0 -- -- 42
2020-09-14 17:00:00 32 6 Sudoeste 21 Sudoeste 0 -- -- 42
2020-09-14 16:00:00 31.5 5 Sur 20 Sur 0 -- -- 42
2020-09-14 15:00:00 31.8 4 Sur 22 Este 0 -- -- 42
2020-09-14 14:00:00 31.5 6 Sur 23 Sur 0 -- -- 42
2020-09-14 13:00:00 30.3 5 Sudeste 28 Sudeste 0 -- -- 45
2020-09-14 12:00:00 27.9 5 Sudeste 27 Sudeste 0 -- -- 49
2020-09-14 11:00:00 25.2 6 Sudeste 23 Sudeste 0 -- -- 53
2020-09-14 10:00:00 22.7 3 Oeste 7 Oeste 0 -- -- 61
2020-09-14 09:00:00 22.1 2 Este 10 Este 0 -- -- 59
2020-09-14 08:00:00 22.6 0 Calma 9 Este 0 -- -- 56
2020-09-14 07:00:00 22.7 3 Este 7 Este 0 -- -- 53
2020-09-14 06:00:00 23.3 3 Este 10 Este 0 -- -- 52
2020-09-14 05:00:00 23.9 0 Calma 5 Sur 0 -- -- 53
2020-09-14 04:00:00 24.1 0 Calma -- -- 0 -- -- 48
2020-09-14 03:00:00 25 0 Calma 5 Oeste 0 -- -- 46
2020-09-14 02:00:00 26.2 0 Calma 12 Sur 0 -- -- 43
2020-09-14 01:00:00 27.8 4 Sudeste -- -- -- -- -- 41
2020-09-14 00:00:00 28.4 4 Sudeste 15 Sur 0 -- -- 42
2020-09-13 23:00:00 27.8 2 Sudeste 14 Sudeste 0 -- -- 42
2020-09-13 22:00:00 29.2 5 Sudeste 16 Sudeste 0 -- -- 40
2020-09-13 21:00:00 30.5 4 Sudeste 22 Este 0 -- -- 39
2020-09-13 20:00:00 32.8 8 Este 25 Sudeste 0 -- -- 36
2020-09-13 19:00:00 34.1 6 Sudeste 27 Sudeste 0 -- -- 35
2020-09-13 18:00:00 35.9 10 Sudeste 28 Sudeste 0 -- -- 35
2020-09-13 17:00:00 35.2 9 Sudeste 26 Sudeste 0 -- -- 36
2020-09-13 16:00:00 32.8 10 Sudeste 32 Este 0 -- -- 38
2020-09-13 15:00:00 33.4 6 Sudeste 31 Este 0 -- -- 40
2020-09-13 14:00:00 31.7 9 Sudeste 35 Este 0 -- -- 41
2020-09-13 13:00:00 30.3 11 Este 37 Este 0 -- -- 42
2020-09-13 12:00:00 29.3 8 Sudeste 34 Sudeste 0 -- -- 42
2020-09-13 11:00:00 26.9 8 Sudeste 26 Este 0 -- -- 46
2020-09-13 10:00:00 25.1 6 Sudeste 27 Sudeste 0 -- -- 46
2020-09-13 09:00:00 24.3 7 Sudeste 25 Este 0 -- -- 46
2020-09-13 08:00:00 24 5 Sudeste 26 Sudeste 0 -- -- 42
2020-09-13 07:00:00 24.1 6 Sudeste 24 Este 0 -- -- 43
2020-09-13 06:00:00 23.9 7 Sudeste 23 Este 0 -- -- 42
2020-09-13 05:00:00 25.1 4 Sudeste 15 Sudeste 0 -- -- 42
2020-09-13 04:00:00 24.6 5 Este 13 Este 0 -- -- 42
2020-09-13 03:00:00 24.8 5 Este 13 Este 0 -- -- 42
2020-09-13 02:00:00 25.7 6 Este 16 Este 0 -- -- 42
2020-09-13 01:00:00 26.3 6 Este 17 Este 0 -- -- 42
2020-09-13 00:00:00 27 6 Nordeste 16 Este 0 -- -- 41
2020-09-12 23:00:00 27.9 5 Este 14 Este 0 -- -- 40
2020-09-12 22:00:00 29.5 5 Este 15 Sudeste 0 -- -- 38
2020-09-12 21:00:00 30.6 4 Este 12 Este 0 -- -- 35
2020-09-12 20:00:00 33.4 4 Este 14 Sudeste 0 -- -- 33
2020-09-12 19:00:00 36.1 2 Este 17 Nordeste 0 -- -- 32
2020-09-12 18:00:00 35.4 5 Este 14 Este 0 -- -- 32
2020-09-12 17:00:00 34.8 4 Sudeste 17 Sur 0 -- -- 32
2020-09-12 16:00:00 35.8 4 Sudeste 20 Este 0 -- -- 33
2020-09-12 15:00:00 35.8 4 Sudeste 24 Este 0 -- -- 33
2020-09-12 14:00:00 34.5 8 Sudeste 30 Este 0 -- -- 35
2020-09-12 13:00:00 32 8 Sudeste 26 Sudeste 0 -- -- 38
2020-09-12 12:00:00 -- -- -- -- -- -- -- -- --
2020-09-12 11:00:00 26.3 7 Este 26 Este 0 -- -- 43
2020-09-12 10:00:00 24.2 10 Este 26 Sudeste 0 -- -- 45
2020-09-12 09:00:00 23.6 11 Sudeste 27 Sudeste 0 -- -- 45
2020-09-12 08:00:00 23.3 13 Sudeste 28 Este 0 -- -- 45
2020-09-12 07:00:00 22.9 9 Sudeste 21 Sudeste 0 -- -- 45
2020-09-12 06:00:00 23.9 9 Este 24 Este 0 -- -- 43
2020-09-12 05:00:00 23.5 6 Este 14 Este 0 -- -- 45
2020-09-12 04:00:00 24.1 6 Este 15 Sudeste 0 -- -- 42
2020-09-12 03:00:00 24.2 6 Nordeste 18 Este 0 -- -- 43
2020-09-12 02:00:00 24.1 5 Este 14 Nordeste 0 -- -- 43
2020-09-12 01:00:00 24.5 3 Este 10 Este 0 -- -- 43
2020-09-12 00:00:00 25.5 5 Este 11 Este 0 -- -- 42
2020-09-11 23:00:00 26.7 4 Este 14 Este 0 -- -- 39
2020-09-11 22:00:00 28.1 3 Este 7 Nordeste 0 -- -- 36
2020-09-11 21:00:00 30.1 0 Calma 8 Oeste 0 -- -- 34
2020-09-11 20:00:00 32.3 4 Oeste 13 Oeste 0 -- -- 32
2020-09-11 19:00:00 33.4 0 Calma 12 Oeste 0 -- -- 32
2020-09-11 18:00:00 35 4 Noroeste 17 Oeste 0 -- -- 32
2020-09-11 17:00:00 35.5 4 Sudeste 15 Sudoeste 0 -- -- 32
2020-09-11 16:00:00 35 4 Noroeste 14 Sudoeste 0 -- -- 32
2020-09-11 15:00:00 35.2 0 Calma 19 Este 0 -- -- 33
2020-09-11 14:00:00 33.2 5 Sudeste 18 Sudeste 0 -- -- 37
2020-09-11 13:00:00 30.8 6 Sudeste 20 Sudeste 0 -- -- 39
2020-09-11 12:00:00 26.6 9 Sudeste 25 Este 0 -- -- 43
2020-09-11 11:00:00 24.8 5 Sudeste 22 Este 0 -- -- 45
2020-09-11 10:00:00 23.6 9 Este 21 Este 0 -- -- 46
2020-09-11 09:00:00 22.1 10 Este 25 Este 0 -- -- 46
2020-09-11 08:00:00 21.7 9 Este 26 Este 0 -- -- 46
2020-09-11 07:00:00 23.1 13 Este 31 Este 0 -- -- 45
2020-09-11 06:00:00 22.6 6 Este 18 Este 0 -- -- 46
2020-09-11 05:00:00 22.1 5 Este 13 Este 0 -- -- 46
2020-09-11 04:00:00 22.7 4 Este 13 Este 0 -- -- 45
2020-09-11 03:00:00 23.5 5 Este 14 Este 0 -- -- 42
2020-09-11 02:00:00 24.3 5 Este 15 Nordeste 0 -- -- 42
2020-09-11 01:00:00 25.8 6 Este 20 Este 0 -- -- 39
2020-09-11 00:00:00 26.7 7 Este 23 Este 0 -- -- 39
2020-09-10 23:00:00 26.4 6 Este 17 Este 0 -- -- 39
2020-09-10 22:00:00 28.8 5 Este 14 Norte 0 -- -- 36
2020-09-10 21:00:00 29.3 2 Noroeste 13 Noroeste 0 -- -- 37
2020-09-10 20:00:00 31.1 6 Oeste 18 Sudoeste 0 -- -- 35
2020-09-10 19:00:00 33.5 8 Noroeste 24 Noroeste 0 -- -- 33
2020-09-10 18:00:00 34.6 4 Noroeste 17 Oeste 0 -- -- 32
2020-09-10 17:00:00 34.5 8 Oeste 16 Sur 0 -- -- 33
2020-09-10 16:00:00 34.5 6 Sur 17 Sudeste 0 -- -- 34
2020-09-10 15:00:00 33.7 3 Sudoeste 12 Sudeste 0 -- -- 35
2020-09-10 14:00:00 31 3 Este 17 Este 0 -- -- 40
2020-09-10 13:00:00 29.4 5 Sudeste 19 Sudeste 0 -- -- 42
2020-09-10 12:00:00 26.8 7 Este 22 Sudeste 0 -- -- 46
2020-09-10 11:00:00 25 5 Este 26 Este 0 -- -- 49
2020-09-10 10:00:00 23.3 7 Este 28 Este 0 -- -- 49
2020-09-10 09:00:00 22 7 Este 25 Este 0 -- -- 49
2020-09-10 08:00:00 20.7 6 Este 19 Este 0 -- -- 49
2020-09-10 07:00:00 19.6 6 Este 13 Este 0 -- -- 50
2020-09-10 06:00:00 19 0 Calma -- -- 0 -- -- 52
2020-09-10 05:00:00 19.6 0 Calma 5 Este 0 -- -- 50
2020-09-10 04:00:00 20.4 0 Calma 6 Este 0 -- -- 49
2020-09-10 03:00:00 21.1 0 Calma 12 Este 0 -- -- 49
2020-09-10 02:00:00 22.1 5 Este 13 Este 0 -- -- 48
2020-09-10 01:00:00 23.3 6 Este 13 Este 0 -- -- 45
2020-09-10 00:00:00 23.6 5 Este 12 Este 0 -- -- 45
2020-09-09 23:00:00 25.1 5 Nordeste 12 Nordeste 0 -- -- 41
2020-09-09 22:00:00 26.6 0 Calma 12 Noroeste 0 -- -- 40
2020-09-09 21:00:00 28.2 4 Noroeste 13 Oeste 0 -- -- 38
2020-09-09 20:00:00 30.3 5 Oeste 15 Oeste 0 -- -- 35
2020-09-09 19:00:00 32.1 6 Oeste 20 Noroeste 0 -- -- 34
2020-09-09 18:00:00 32.7 4 Este 12 Sudeste 0 -- -- 34
2020-09-09 17:00:00 32.6 0 Calma 13 Sudoeste 0 -- -- 35
2020-09-09 16:00:00 31.6 5 Sur 15 Sudeste 0 -- -- 35
2020-09-09 15:00:00 31.7 4 Sur 18 Este 0 -- -- 37
2020-09-09 14:00:00 30.2 5 Sudeste 22 Este 0 -- -- 39
2020-09-09 13:00:00 28.6 8 Sudeste 23 Sudeste 0 -- -- 42
2020-09-09 12:00:00 25 8 Sudeste 30 Sudeste 0 -- -- 47
2020-09-09 11:00:00 23.1 6 Sudeste 28 Sudeste 0 -- -- 50
2020-09-09 10:00:00 20.3 9 Este 22 Este 0 -- -- 52
2020-09-09 09:00:00 18.9 7 Este 27 Este 0 -- -- 52
2020-09-09 08:00:00 18.5 10 Este 31 Este 0 -- -- 51
2020-09-09 07:00:00 19 7 Este 26 Este 0 -- -- 51
2020-09-09 06:00:00 19.5 6 Este 15 Este 0 -- -- 51
2020-09-09 05:00:00 18.6 5 Este 15 Este 0 -- -- 51
2020-09-09 04:00:00 19.6 6 Este 15 Nordeste 0 -- -- 49
2020-09-09 03:00:00 20.5 6 Este 15 Este 0 -- -- 48
2020-09-09 02:00:00 21.1 6 Este 17 Este 0 -- -- 48
2020-09-09 01:00:00 22.3 8 Este 18 Este 0 -- -- 45
2020-09-09 00:00:00 23.4 7 Este 18 Nordeste 0 -- -- 43
2020-09-08 23:00:00 23.8 5 Este 13 Este 0 -- -- 42
2020-09-08 22:00:00 24.1 4 Este 13 Sudeste 0 -- -- 42
2020-09-08 21:00:00 25.9 4 Este 18 Este 0 -- -- 40
2020-09-08 20:00:00 27.9 4 Sudeste 18 Sur 0 -- -- 39
2020-09-08 19:00:00 29.6 5 Sudeste 21 Este 0 -- -- 39
2020-09-08 18:00:00 30.1 6 Sudeste 24 Sudeste 0 -- -- 40
2020-09-08 17:00:00 29.3 8 Este 27 Este 0 -- -- 40
2020-09-08 16:00:00 28.9 6 Sudeste 30 Este 0 -- -- 42
2020-09-08 15:00:00 -- 10 Este 36 Sudeste 0 -- -- --
2020-09-08 14:00:00 26.9 11 Sudeste 31 Sudeste 0 -- -- 45
2020-09-08 13:00:00 25.3 8 Sudeste 35 Este 0 -- -- 47
2020-09-08 12:00:00 22.9 12 Sudeste 43 Este 0 -- -- 51
2020-09-08 11:00:00 21 14 Este 43 Este 0 -- -- 52
2020-09-08 10:00:00 19.9 8 Sudeste 31 Sudeste 0 -- -- 48
2020-09-08 09:00:00 18.6 8 Este 26 Sudeste 0 -- -- 46
2020-09-08 08:00:00 19.2 6 Este 30 Sudeste 0 -- -- 45
2020-09-08 07:00:00 19.8 8 Este 31 Sudeste 0 -- -- 43
2020-09-08 06:00:00 20.3 7 Sudeste 26 Este 0 -- -- 42
2020-09-08 05:00:00 19.3 2 Este 17 Este 0 -- -- 46
2020-09-08 04:00:00 18.2 0 Calma 5 Sur 0 -- -- 48
2020-09-08 03:00:00 19.8 0 Calma 7 Oeste 0 -- -- 45
2020-09-08 02:00:00 21.1 2 Nordeste 10 Norte 0 -- -- 42
2020-09-08 01:00:00 23.1 0 Calma 23 Este 0 -- -- 40
2020-09-08 00:00:00 23.8 9 Nordeste 35 Este 0 -- -- 40
2020-09-07 23:00:00 25 13 Nordeste 36 Nordeste 0 -- -- 39
2020-09-07 22:00:00 26 12 Nordeste 31 Nordeste 0 -- -- 36
2020-09-07 21:00:00 26.7 9 Nordeste 28 Nordeste 0 -- -- 35
2020-09-07 20:00:00 28.8 11 Norte 34 Nordeste 0 -- -- 33
2020-09-07 19:00:00 30.4 14 Norte 33 Norte 0 -- -- 32
2020-09-07 18:00:00 32.1 6 Norte 23 Norte 0 -- -- 32
2020-09-07 17:00:00 31.8 11 Nordeste 24 Nordeste 0 -- -- 33
2020-09-07 16:00:00 32.1 5 Nordeste 23 Norte 0 -- -- 35
2020-09-07 15:00:00 31.5 2 Nordeste 17 Sudoeste 0 -- -- 37
2020-09-07 14:00:00 29.7 5 Nordeste -- -- -- -- -- 39
2020-09-07 13:00:00 27.3 5 Oeste 17 Norte 0 -- -- 42
2020-09-07 12:00:00 25.7 5 Noroeste 13 Noroeste 0 -- -- 46
2020-09-07 11:00:00 23.3 2 Noroeste 9 Noroeste 0 -- -- 50
2020-09-07 10:00:00 20.6 0 Calma 7 Nordeste 0 -- -- 54
2020-09-07 09:00:00 19.4 2 Este 9 Nordeste 0 -- -- 56
2020-09-07 08:00:00 18.9 2 Sudeste 6 Sudeste 0 -- -- 55
2020-09-07 07:00:00 20.1 0 Calma 7 Sudeste 0 -- -- 52
2020-09-07 06:00:00 21.9 2 Nordeste 14 Nordeste 0 -- -- 49
2020-09-07 05:00:00 24.1 6 Nordeste 21 Nordeste 0 -- -- 46
2020-09-07 04:00:00 23.6 0 Calma 14 Nordeste 0 -- -- 48
2020-09-07 03:00:00 24.6 3 Norte 18 Nordeste 0 -- -- 46
2020-09-07 02:00:00 25.6 0 Calma 6 Este 0 -- -- 45
2020-09-07 01:00:00 27 0 Calma 16 Nordeste 0 -- -- 42
2020-09-07 00:00:00 28.3 6 Este 19 Norte 0 -- -- 41
2020-09-06 23:00:00 29.7 8 Nordeste 19 Norte 0 -- -- 39
2020-09-06 22:00:00 30.7 3 Nordeste 14 Nordeste 0 -- -- 36
2020-09-06 21:00:00 31.9 6 Nordeste 14 Norte 0 -- -- 34
2020-09-06 20:00:00 34.1 6 Oeste 17 Oeste 0 -- -- 33
2020-09-06 19:00:00 35.8 6 Oeste 24 Sudoeste 0 -- -- 32
2020-09-06 18:00:00 36.1 6 Oeste 23 Oeste 0 -- -- 32
2020-09-06 17:00:00 36.3 4 Noroeste 19 Noroeste 0 -- -- 33
2020-09-06 16:00:00 35.6 6 Oeste 17 Sudoeste 0 -- -- 34
2020-09-06 15:00:00 35.3 3 Sudeste 13 Sur 0 -- -- 35
2020-09-06 14:00:00 33.3 3 Sur 13 Este 0 -- -- 38
2020-09-06 13:00:00 31.6 4 Sudeste 19 Este 0 -- -- 40
2020-09-06 12:00:00 28.7 4 Sudeste 18 Sudeste 0 -- -- 45
2020-09-06 11:00:00 26.4 4 Sudeste 17 Sudeste 0 -- -- 49
2020-09-06 10:00:00 24.4 4 Este 27 Sudeste 0 -- -- 51
2020-09-06 09:00:00 23.4 4 Este 18 Sudeste 0 -- -- 51
2020-09-06 08:00:00 23.5 6 Este 19 Este 0 -- -- 49
2020-09-06 07:00:00 23.7 4 Este 27 Este 0 -- -- 48
2020-09-06 06:00:00 24.5 9 Este 24 Este 0 -- -- 46
2020-09-06 05:00:00 22.7 5 Este 13 Este 0 -- -- 50
2020-09-06 04:00:00 23.6 0 Calma 5 Sudeste 0 -- -- 49
2020-09-06 03:00:00 24.1 2 Nordeste 9 Nordeste 0 -- -- 48
2020-09-06 02:00:00 24.6 0 Calma 10 Este 0 -- -- 47
2020-09-06 01:00:00 26.7 0 Calma 24 Nordeste 0 -- -- 42
2020-09-06 00:00:00 27.1 6 Este 19 Nordeste 0 -- -- 42
2020-09-05 23:00:00 28.1 7 Este 16 Este 0 -- -- 41
2020-09-05 22:00:00 29.8 4 Este 10 Este 0 -- -- 37
2020-09-05 21:00:00 31.7 0 Calma 8 Sudeste 0 -- -- 34
2020-09-05 20:00:00 35 0 Calma 10 Este 0 -- -- 32
2020-09-05 19:00:00 36.7 2 Sur 11 Sudeste 0 -- -- 30
2020-09-05 18:00:00 36.5 5 Oeste 15 Oeste 0 -- -- 31
2020-09-05 17:00:00 36.6 3 Sur 17 Este 0 -- -- 31
2020-09-05 16:00:00 36.3 2 Sur 13 Este 0 -- -- 34
2020-09-05 15:00:00 34.6 4 Este 17 Este 0 -- -- 35
2020-09-05 14:00:00 34.1 4 Sudeste 20 Este 0 -- -- 38
2020-09-05 13:00:00 30.8 4 Sudeste 18 Este 0 -- -- 42
2020-09-05 12:00:00 27.7 6 Sudeste 19 Este 0 -- -- 46
2020-09-05 11:00:00 25.2 6 Sudeste 26 Sudeste 0 -- -- 48
2020-09-05 10:00:00 23.1 6 Este 22 Este 0 -- -- 48
2020-09-05 09:00:00 22.2 6 Este 21 Sudeste 0 -- -- 47
2020-09-05 08:00:00 22.2 5 Este 13 Este 0 -- -- 49
2020-09-05 07:00:00 22.3 5 Este 15 Este 0 -- -- 49
2020-09-05 06:00:00 23.4 5 Este 17 Nordeste 0 -- -- 47
2020-09-05 05:00:00 23.6 5 Este 13 Sudeste 0 -- -- 46
2020-09-05 04:00:00 24.2 5 Nordeste 13 Nordeste 0 -- -- 46
2020-09-05 03:00:00 24.2 4 Este 12 Este 0 -- -- 47
2020-09-05 02:00:00 24.8 6 Este 13 Este 0 -- -- 46
2020-09-05 01:00:00 25.6 5 Nordeste 14 Este 0 -- -- 43
2020-09-05 00:00:00 26.5 6 Este 13 Este 0 -- -- 42
2020-09-04 23:00:00 27.8 6 Este 13 Este 0 -- -- 40
2020-09-04 22:00:00 30 0 Calma -- -- 0 -- -- 35
2020-09-04 21:00:00 31.9 0 Calma 4 Sudeste 0 -- -- 34
2020-09-04 20:00:00 34.7 0 Calma 13 Nordeste 0 -- -- 32
2020-09-04 19:00:00 36.3 2 Sudeste 13 Este 0 -- -- 31
2020-09-04 18:00:00 36.5 3 Sudeste 20 Sudeste 0 -- -- 32
2020-09-04 17:00:00 36.6 3 Sur 15 Sur 0 -- -- 32
2020-09-04 16:00:00 36 5 Sudeste 20 Sur 0 -- -- 34
2020-09-04 15:00:00 35 4 Sudeste 20 Este 0 -- -- 38
2020-09-04 14:00:00 32.9 4 Sudeste 17 Sudeste 0 -- -- 40
2020-09-04 13:00:00 30.1 5 Sudeste 22 Sudeste 0 -- -- 42
2020-09-04 12:00:00 27.3 7 Sudeste 24 Este 0 -- -- 46
2020-09-04 11:00:00 25.7 8 Sudeste 33 Este 0 -- -- 46
2020-09-04 10:00:00 23.8 6 Este 21 Este 0 -- -- 46
2020-09-04 09:00:00 21.7 9 Este 23 Este 0 -- -- 46
2020-09-04 08:00:00 20.9 6 Este 25 Este 0 -- -- 46
2020-09-04 07:00:00 22.7 8 Este 22 Este 0 -- -- 43
2020-09-04 06:00:00 22.6 4 Este 12 Sudeste 0 -- -- 45
2020-09-04 05:00:00 22.7 4 Este 18 Este 0 -- -- 42
2020-09-04 04:00:00 23.3 6 Nordeste 16 Este 0 -- -- 45
2020-09-04 03:00:00 23.4 5 Este 14 Este 0 -- -- 43
2020-09-04 02:00:00 24.5 5 Este 18 Este 0 -- -- 42
2020-09-04 01:00:00 25.3 5 Este 14 Este 0 -- -- 41
2020-09-04 00:00:00 26.5 6 Este 20 Nordeste 0 -- -- 37
2020-09-03 23:00:00 27.1 6 Este 17 Este 0 -- -- 36
2020-09-03 22:00:00 29 5 Este 10 Este 0 -- -- 33
2020-09-03 21:00:00 31.2 0 Calma 8 Oeste 0 -- -- 31
2020-09-03 20:00:00 34 4 Oeste 10 Oeste 0 -- -- 28
2020-09-03 19:00:00 36 0 Calma 15 Oeste 0 -- -- 28
2020-09-03 18:00:00 35.4 7 Sudoeste 19 Sudoeste 0 -- -- 28
2020-09-03 17:00:00 36 2 Oeste 18 Este 0 -- -- 28
2020-09-03 16:00:00 35.3 2 Sudoeste 17 Sudeste 0 -- -- 29
2020-09-03 15:00:00 34.3 2 Este 15 Sudeste 0 -- -- 30
2020-09-03 14:00:00 33.6 5 Sudeste 19 Este 0 -- -- 33
2020-09-03 13:00:00 30.7 5 Sudeste 21 Sudeste 0 -- -- 37
2020-09-03 12:00:00 27.2 4 Sudeste 19 Sudeste 0 -- -- 40
2020-09-03 11:00:00 24.7 5 Sudeste 21 Sudeste 0 -- -- 42
2020-09-03 10:00:00 22.8 5 Sudeste 18 Sudeste 0 -- -- 43
2020-09-03 09:00:00 21.2 6 Este 22 Este 0 -- -- 43
2020-09-03 08:00:00 21.9 9 Este 24 Este 0 -- -- 43
2020-09-03 07:00:00 20.7 4 Este 17 Este 0 -- -- 45
2020-09-03 06:00:00 20.8 5 Este 13 Este 0 -- -- 45
2020-09-03 05:00:00 20.8 2 Este 9 Este 0 -- -- 42
2020-09-03 04:00:00 21.9 4 Este 14 Este 0 -- -- 42
2020-09-03 03:00:00 23.1 6 Este 19 Este 0 -- -- 39
2020-09-03 02:00:00 24.8 5 Este 22 Este 0 -- -- 36
2020-09-03 01:00:00 25.1 6 Este 19 Este 0 -- -- 36
2020-09-03 00:00:00 25.5 6 Este 17 Este 0 -- -- 36
2020-09-02 23:00:00 25.7 6 Este 16 Este 0 -- -- 36
2020-09-02 22:00:00 27.2 0 Calma 8 Noroeste 0 -- -- 33
2020-09-02 21:00:00 29.1 3 Noroeste 15 Oeste 0 -- -- 32
2020-09-02 20:00:00 31.5 5 Oeste 16 Oeste 0 -- -- 29
2020-09-02 19:00:00 33.5 6 Oeste 24 Oeste 0 -- -- 28
2020-09-02 18:00:00 34.4 2 Sur 12 Oeste 0 -- -- 28
2020-09-02 17:00:00 33.5 4 Sudoeste 14 Noroeste 0 -- -- 29
2020-09-02 16:00:00 33 2 Sur 21 Sur 0 -- -- 30
2020-09-02 15:00:00 31.7 5 Este 20 Este 0 -- -- 32
2020-09-02 14:00:00 31.3 6 Sudeste 26 Sudeste 0 -- -- 34
2020-09-02 13:00:00 28.7 5 Sudeste 23 Este 0 -- -- 38
2020-09-02 12:00:00 25.9 6 Sudeste 21 Este 0 -- -- 40
2020-09-02 11:00:00 23.1 6 Este 20 Sudeste 0 -- -- 42
2020-09-02 10:00:00 21 4 Este 24 Este 0 -- -- 45
2020-09-02 09:00:00 19.5 5 Este 19 Este 0 -- -- 45
2020-09-02 08:00:00 19.6 5 Este 22 Este 0 -- -- 42
2020-09-02 07:00:00 20.3 8 Este 20 Este 0 -- -- 43
2020-09-02 06:00:00 20.4 8 Este 24 Este 0 -- -- 42
2020-09-02 05:00:00 18.9 2 Este 8 Nordeste 0 -- -- 45
2020-09-02 04:00:00 19.6 2 Este 10 Sudeste 0 -- -- 45
2020-09-02 03:00:00 20.4 0 Calma 11 Este 0 -- -- 42
2020-09-02 02:00:00 21.3 2 Sudeste 12 Nordeste 0 -- -- 43
2020-09-02 01:00:00 21.8 3 Oeste 12 Este 0 -- -- 40
2020-09-02 00:00:00 23.1 5 Este 13 Este 0 -- -- 39
2020-09-01 23:00:00 24.1 5 Este 16 Este 0 -- -- 37
2020-09-01 22:00:00 25.9 0 Calma 2 Noroeste 0 -- -- 34
2020-09-01 21:00:00 27.8 0 Calma 11 Oeste 0 -- -- 32
2020-09-01 20:00:00 30.1 4 Noroeste 14 Oeste 0 -- -- 29
2020-09-01 19:00:00 31.6 4 Oeste 17 Oeste 0 -- -- 28
2020-09-01 18:00:00 31.8 6 Oeste 20 Oeste 0 -- -- 28
2020-09-01 17:00:00 31.6 5 Oeste 20 Oeste 0 -- -- 28
2020-09-01 16:00:00 30.5 6 Oeste 21 Oeste 0 -- -- 29
2020-09-01 15:00:00 30.5 5 Oeste 17 Noroeste 0 -- -- 32
2020-09-01 14:00:00 29.2 2 Este 10 Sudeste 0 -- -- 35
2020-09-01 13:00:00 26.9 4 Sudeste 12 Este 0 -- -- 38
2020-09-01 12:00:00 25.4 3 Este 13 Este 0 -- -- 39
2020-09-01 11:00:00 23.4 2 Sudeste 10 Sudeste 0 -- -- 42
2020-09-01 10:00:00 19.5 0 Calma 6 Este 0 -- -- 49
2020-09-01 09:00:00 17.3 0 Calma 7 Este 0 -- -- 51
2020-09-01 08:00:00 18.2 4 Este 10 Este 0 -- -- 49
2020-09-01 07:00:00 18.1 4 Este 12 Este 0 -- -- 49
2020-09-01 06:00:00 18.4 0 Calma 5 Sudoeste 0 -- -- 48
2020-09-01 05:00:00 19 0 Calma 6 Este 0 -- -- 46
2020-09-01 04:00:00 19.9 3 Este 12 Nordeste 0 -- -- 42
2020-09-01 03:00:00 19.7 0 Calma 14 Sudeste 0 -- -- 42
2020-09-01 02:00:00 19.5 5 Este 14 Sudeste 0 -- -- 43
2020-09-01 01:00:00 19.9 5 Nordeste 12 Nordeste 0 -- -- 42
2020-09-01 00:00:00 21 5 Este 15 Este 0 -- -- 39
2020-08-31 23:00:00 21.7 6 Este 15 Este 0 -- -- 39
2020-08-31 22:00:00 23.8 0 Calma 6 Oeste 0 -- -- 34
2020-08-31 21:00:00 25.1 3 Oeste 11 Oeste 0 -- -- 32
2020-08-31 20:00:00 27.3 6 Oeste 14 Sudoeste 0 -- -- 31
2020-08-31 19:00:00 29.1 5 Oeste 22 Noroeste 0 -- -- 30
2020-08-31 18:00:00 29.1 4 Noroeste 15 Noroeste 0 -- -- 30
2020-08-31 17:00:00 29.3 0 Calma 17 Sur 0 -- -- 32
2020-08-31 16:00:00 27.8 2 Sudoeste 15 Oeste 0 -- -- 33
2020-08-31 15:00:00 26.2 4 Este 19 Este 0 -- -- 36
2020-08-31 14:00:00 25.7 5 Sudeste 21 Este 0 -- -- 39
2020-08-31 13:00:00 24.4 5 Sudeste 31 Sudeste 0 -- -- 41
2020-08-31 12:00:00 22.9 8 Sudeste 27 Sudeste 0 -- -- 43
2020-08-31 11:00:00 20.6 9 Este 29 Sudeste 0 -- -- 46
2020-08-31 10:00:00 18.4 8 Este 25 Este 0 -- -- 49
2020-08-31 09:00:00 17.5 8 Este 24 Este 0 -- -- 49
2020-08-31 08:00:00 16.9 8 Este 19 Este 0 -- -- 49
2020-08-31 07:00:00 17.7 8 Este 22 Este 0 -- -- 47
2020-08-31 06:00:00 17.8 10 Este 26 Este 0 -- -- 46
2020-08-31 05:00:00 17.7 8 Este 20 Este 0 -- -- 46
2020-08-31 04:00:00 17.6 8 Este 18 Nordeste 0 -- -- 47
2020-08-31 03:00:00 18.3 5 Este 17 Este 0 -- -- 45
2020-08-31 02:00:00 18.5 5 Este 14 Este 0 -- -- 43
2020-08-31 01:00:00 19.7 4 Este 19 Nordeste 0 -- -- 42
2020-08-31 00:00:00 20.2 6 Nordeste 19 Nordeste 0 -- -- 40
2020-08-30 23:00:00 21.1 9 Nordeste 23 Nordeste 0 -- -- 39
2020-08-30 22:00:00 22.1 5 Nordeste 27 Norte 0 -- -- 38
2020-08-30 21:00:00 23.5 11 Norte 32 Norte 0 -- -- 35
2020-08-30 20:00:00 25.3 7 Nordeste 21 Nordeste 0 -- -- 34
2020-08-30 19:00:00 27.1 5 Norte 20 Nordeste 0 -- -- 32
2020-08-30 18:00:00 28 4 Noroeste 17 Este 0 -- -- 33
2020-08-30 17:00:00 27.5 4 Nordeste 19 Nordeste 0 -- -- 34
2020-08-30 16:00:00 26.7 6 Oeste 20 Sudoeste 0 -- -- 37
2020-08-30 15:00:00 25.4 6 Oeste 17 Oeste 0 -- -- 40
2020-08-30 14:00:00 25.1 3 Sur 13 Sudeste 0 -- -- 42
2020-08-30 13:00:00 23.1 2 Sudeste 19 Este 0 -- -- 46
2020-08-30 12:00:00 21 7 Sudeste 26 Sudeste 0 -- -- 49
2020-08-30 11:00:00 19.4 8 Sudeste 23 Sudeste 0 -- -- 52
2020-08-30 10:00:00 17.5 4 Este 16 Este 0 -- -- 57
2020-08-30 09:00:00 15.7 5 Este 18 Este 0 -- -- 62
2020-08-30 08:00:00 15.8 6 Este 20 Este 0 -- -- 60
2020-08-30 07:00:00 15.8 5 Este 13 Este 0 -- -- 59
2020-08-30 06:00:00 16.5 3 Nordeste 13 Este 0 -- -- 56
2020-08-30 05:00:00 17.4 6 Este 19 Nordeste 0 -- -- 53
2020-08-30 04:00:00 18.1 9 Nordeste 25 Nordeste 0 -- -- 52
2020-08-30 03:00:00 17.9 6 Norte 23 Norte 0 -- -- 52
2020-08-30 02:00:00 18.5 7 Norte 32 Nordeste 0 -- -- 50
2020-08-30 01:00:00 19.4 10 Norte 27 Norte 0 -- -- 49
2020-08-30 00:00:00 19.9 6 Nordeste 24 Nordeste 0 -- -- 46
2020-08-29 23:00:00 20.9 5 Norte 29 Norte 0 -- -- 42
2020-08-29 22:00:00 22.2 5 Norte 22 Norte 0 -- -- 41
2020-08-29 21:00:00 23.3 5 Norte 26 Noroeste 0 -- -- 41
2020-08-29 20:00:00 24.4 9 Norte 30 Nordeste 0 -- -- 39
2020-08-29 19:00:00 26.5 6 Norte 28 Nordeste 0 -- -- 37
2020-08-29 18:00:00 26.3 11 Nordeste 31 Norte 0 -- -- 37
2020-08-29 17:00:00 26.9 7 Nordeste 28 Nordeste 0 -- -- 38
2020-08-29 16:00:00 25.4 13 Norte 33 Norte 0 -- -- 39
2020-08-29 15:00:00 25 12 Nordeste 34 Nordeste 0 -- -- 41
2020-08-29 14:00:00 23.6 11 Norte 37 Norte 0 -- -- 42
2020-08-29 13:00:00 22.2 13 Nordeste 39 Nordeste 0 -- -- 47
2020-08-29 12:00:00 20.4 15 Norte 50 Nordeste 0 -- -- 50
2020-08-29 11:00:00 19.2 14 Norte 41 Nordeste 0 -- -- 53
2020-08-29 10:00:00 17.6 11 Norte 33 Norte 0 -- -- 55
2020-08-29 09:00:00 16.2 10 Norte 44 Nordeste 0 -- -- 57
2020-08-29 08:00:00 15.7 13 Norte 38 Norte 0 -- -- 59
2020-08-29 07:00:00 15.8 12 Norte 41 Nordeste 0 -- -- 57
2020-08-29 06:00:00 16 11 Norte 41 Norte 0 -- -- 55
2020-08-29 05:00:00 16.5 9 Norte 41 Nordeste 0 -- -- 53
2020-08-29 04:00:00 17.1 13 Norte 48 Norte 0 -- -- 50
2020-08-29 03:00:00 18.1 12 Norte 46 Noroeste 0 -- -- 48
2020-08-29 02:00:00 19.3 15 Norte 56 Norte 0 -- -- 48
2020-08-29 01:00:00 20.7 12 Norte 51 Norte 0 -- -- 46
2020-08-29 00:00:00 22.2 10 Norte 39 Noroeste 0 -- -- 42
2020-08-28 23:00:00 23.5 8 Norte 30 Norte 0 -- -- 41
2020-08-28 22:00:00 24.8 5 Noroeste 25 Norte 0 -- -- 38
2020-08-28 21:00:00 26.7 8 Noroeste 29 Noroeste 0 -- -- 35
2020-08-28 20:00:00 29.6 8 Noroeste 31 Noroeste 0 -- -- 32
2020-08-28 19:00:00 31.2 10 Noroeste 30 Oeste 0 -- -- 28
2020-08-28 18:00:00 32.3 10 Noroeste 31 Oeste 0 -- -- 30
2020-08-28 17:00:00 31.9 10 Noroeste 30 Oeste 0 -- -- 31
2020-08-28 16:00:00 31.8 11 Noroeste 35 Noroeste 0 -- -- 33
2020-08-28 15:00:00 31.5 10 Oeste 30 Norte 0 -- -- 33
2020-08-28 14:00:00 30.1 9 Noroeste 28 Oeste 0 -- -- 41
2020-08-28 13:00:00 28.5 12 Oeste 29 Oeste 0 -- -- 46
2020-08-28 12:00:00 26.4 7 Noroeste 36 Noroeste 0 -- -- 56
2020-08-28 11:00:00 24.4 10 Norte 37 Noroeste 0 -- -- 62
2020-08-28 10:00:00 23.5 13 Norte 39 Noroeste 0 -- -- 66
2020-08-28 09:00:00 22.3 13 Noroeste 40 Noroeste 0 -- -- 66
2020-08-28 08:00:00 22.6 9 Norte 38 Nordeste 0 -- -- 62
2020-08-28 07:00:00 23.4 11 Norte 46 Norte 0 -- -- 59
2020-08-28 06:00:00 23.4 13 Norte 44 Noroeste 0 -- -- 64
2020-08-28 05:00:00 24.1 11 Norte 40 Nordeste 0 -- -- 63
2020-08-28 04:00:00 25.5 11 Norte 39 Noroeste 0 -- -- 60
2020-08-28 03:00:00 26.2 11 Norte 40 Norte 0 -- -- 58
2020-08-28 02:00:00 27.1 10 Norte 38 Nordeste 0 -- -- 55
2020-08-28 01:00:00 27.9 12 Norte 43 Nordeste 0 -- -- 52
2020-08-28 00:00:00 29.6 12 Norte 37 Nordeste 0 -- -- 45
2020-08-27 23:00:00 31.1 12 Norte 32 Norte 0 -- -- 35
2020-08-27 22:00:00 32.1 8 Norte 25 Norte 0 -- -- 34
2020-08-27 21:00:00 33.9 4 Norte 22 Noroeste 0 -- -- 32
2020-08-27 20:00:00 35.6 9 Oeste 28 Sudoeste 0 -- -- 33
2020-08-27 19:00:00 36.6 11 Oeste 27 Sudoeste 0 -- -- 33
2020-08-27 18:00:00 37.6 9 Oeste 24 Oeste 0 -- -- 32
2020-08-27 17:00:00 37.6 9 Oeste 25 Oeste 0 -- -- 34
2020-08-27 16:00:00 37.5 8 Oeste 22 Sudoeste 0 -- -- 34
2020-08-27 15:00:00 37.5 6 Oeste 15 Noroeste 0 -- -- 35
2020-08-27 14:00:00 35.9 4 Oeste 16 Oeste 0 -- -- 38
2020-08-27 13:00:00 34 5 Oeste 17 Oeste 0 -- -- 42
2020-08-27 12:00:00 31.7 4 Noroeste 14 Noroeste 0 -- -- 46
2020-08-27 11:00:00 29.1 3 Noroeste 13 Norte 0 -- -- 49
2020-08-27 10:00:00 24.9 0 Calma 4 Sudoeste 0 -- -- 52
2020-08-27 09:00:00 22.6 0 Calma 6 Sudeste 0 -- -- 57
2020-08-27 08:00:00 21.8 2 Oeste 12 Oeste 0 -- -- 56
2020-08-27 07:00:00 22.8 6 Oeste 14 Oeste 0 -- -- 52
2020-08-27 06:00:00 23.6 3 Oeste 8 Oeste 0 -- -- 46
2020-08-27 05:00:00 24.9 0 Calma 6 Sudeste 0 -- -- 39
2020-08-27 04:00:00 26.1 4 Este 8 Este 0 -- -- 37
2020-08-27 03:00:00 27.2 2 Sudoeste 16 Nordeste 0 -- -- 35
2020-08-27 02:00:00 29.2 6 Nordeste 23 Norte 0 -- -- 35
2020-08-27 01:00:00 26.6 2 Sudoeste 10 Este 0 -- -- 35
2020-08-27 00:00:00 28.3 6 Este 13 Este 0 -- -- 32
2020-08-26 23:00:00 30.1 4 Este 14 Nordeste 0 -- -- 29
2020-08-26 22:00:00 31.9 0 Calma 8 Este 0 -- -- 26
2020-08-26 21:00:00 34.4 0 Calma 11 Oeste 0 -- -- 24
2020-08-26 20:00:00 36.9 4 Oeste 13 Sudoeste 0 -- -- 22
2020-08-26 19:00:00 38 5 Oeste 19 Oeste 0 -- -- 22
2020-08-26 18:00:00 38.1 7 Oeste 22 Sudoeste 0 -- -- 25
2020-08-26 17:00:00 37.9 9 Oeste 25 Oeste 0 -- -- 25
2020-08-26 16:00:00 37.6 6 Noroeste 23 Oeste 0 -- -- 27
2020-08-26 15:00:00 36.8 7 Noroeste 19 Noroeste 0 -- -- 26
2020-08-26 14:00:00 35.6 6 Oeste 16 Noroeste 0 -- -- 29
2020-08-26 13:00:00 34.5 6 Oeste 14 Oeste 0 -- -- 30
2020-08-26 12:00:00 30.4 3 Oeste 9 Oeste 0 -- -- 38
2020-08-26 11:00:00 27.3 4 Oeste 10 Oeste 0 -- -- 42
2020-08-26 10:00:00 24.6 2 Oeste 13 Este 0 -- -- 42
2020-08-26 09:00:00 22.6 5 Este 11 Este 0 -- -- 45
2020-08-26 08:00:00 22 4 Sudeste 6 Sudeste 0 -- -- 45
2020-08-26 07:00:00 22.6 0 Calma -- -- 0 -- -- 42
2020-08-26 06:00:00 22.7 0 Calma 4 Este 0 -- -- 42
2020-08-26 05:00:00 23.7 4 Oeste 10 Oeste 0 -- -- 40
2020-08-26 04:00:00 25.8 4 Sudoeste 21 Nordeste 0 -- -- 35
2020-08-26 03:00:00 24.3 0 Calma 5 Oeste 0 -- -- 41
2020-08-26 02:00:00 25.7 0 Calma 8 Sudeste 0 -- -- 39
2020-08-26 01:00:00 26.7 3 Este 8 Este 0 -- -- 37
2020-08-26 00:00:00 28.2 0 Calma 12 Noroeste 0 -- -- 35
2020-08-25 23:00:00 29.9 6 Este 14 Este 0 -- -- 32
2020-08-25 22:00:00 32.1 4 Este 7 Este 0 -- -- 29
2020-08-25 21:00:00 34.5 0 Calma 11 Oeste 0 -- -- 28
2020-08-25 20:00:00 36.1 4 Noroeste 21 Oeste 0 -- -- 27
2020-08-25 19:00:00 37.6 4 Noroeste 22 Oeste 0 -- -- 27
2020-08-25 18:00:00 37.7 6 Noroeste 24 Oeste 0 -- -- 27
2020-08-25 17:00:00 37.6 6 Noroeste 26 Noroeste 0 -- -- 28
2020-08-25 16:00:00 37.4 7 Noroeste 27 Oeste 0 -- -- 28
2020-08-25 15:00:00 37.3 5 Sudoeste 19 Oeste 0 -- -- 28
2020-08-25 14:00:00 35.5 4 Sudoeste 13 Oeste 0 -- -- 30
2020-08-25 13:00:00 34.6 2 Sur 15 Este 0 -- -- 32
2020-08-25 12:00:00 30.7 5 Sudeste 21 Este 0 -- -- 39
2020-08-25 11:00:00 27.7 0 Calma 9 Este 0 -- -- 42
2020-08-25 10:00:00 24.2 0 Calma 9 Este 0 -- -- 48
2020-08-25 09:00:00 22.1 3 Este 11 Este 0 -- -- 48
2020-08-25 08:00:00 20.4 0 Calma 7 Este 0 -- -- 49
2020-08-25 07:00:00 22.8 4 Este 16 Este 0 -- -- 45
2020-08-25 06:00:00 22.7 6 Este 14 Este 0 -- -- 46
2020-08-25 05:00:00 22.8 0 Calma 6 Este 0 -- -- 42
2020-08-25 04:00:00 23.4 0 Calma 9 Sudoeste 0 -- -- 42
2020-08-25 03:00:00 24.4 0 Calma 4 Noroeste 0 -- -- 41
2020-08-25 02:00:00 25.6 3 Sudeste 12 Este 0 -- -- 39
2020-08-25 01:00:00 26.2 4 Este 11 Este 0 -- -- 39
2020-08-25 00:00:00 27.7 6 Este 12 Nordeste 0 -- -- 36
2020-08-24 23:00:00 29.2 5 Este 13 Este 0 -- -- 34
2020-08-24 22:00:00 31 0 Calma 10 Noroeste 0 -- -- 33
2020-08-24 21:00:00 32.5 4 Noroeste 14 Oeste 0 -- -- 30
2020-08-24 20:00:00 35 4 Noroeste 19 Sudeste 0 -- -- 27
2020-08-24 19:00:00 37.3 0 Calma 10 Este 0 -- -- 26
2020-08-24 18:00:00 37.2 2 Nordeste 11 Sudoeste 0 -- -- 27
2020-08-24 17:00:00 37 4 Sudoeste 22 Oeste 0 -- -- 27
2020-08-24 16:00:00 36.8 3 Sur 12 Sur 0 -- -- 28
2020-08-24 15:00:00 36.1 4 Sudeste 19 Este 0 -- -- 30
2020-08-24 14:00:00 34.7 7 Sudeste 21 Este 0 -- -- 31
2020-08-24 13:00:00 32.5 4 Sudeste 19 Este 0 -- -- 34
2020-08-24 12:00:00 30 7 Sudeste 18 Sudeste 0 -- -- 36
2020-08-24 11:00:00 27.6 5 Sudeste 19 Sudeste 0 -- -- 36
2020-08-24 10:00:00 25.6 5 Sudeste 14 Sudeste 0 -- -- 39
2020-08-24 09:00:00 23.7 5 Este 17 Este 0 -- -- 39
2020-08-24 08:00:00 22.2 4 Este 11 Nordeste 0 -- -- 41
2020-08-24 07:00:00 22.4 3 Este 10 Este 0 -- -- 40
2020-08-24 06:00:00 23.3 5 Este 10 Este 0 -- -- 38
2020-08-24 05:00:00 23.7 0 Calma 5 Sudoeste 0 -- -- 35
2020-08-24 04:00:00 25.8 0 Calma 19 Nordeste 0 -- -- 33
2020-08-24 03:00:00 26.2 3 Nordeste 21 Este 0 -- -- 33
2020-08-24 02:00:00 26.9 4 Nordeste 15 Norte 0 -- -- 32
2020-08-24 01:00:00 27.8 5 Nordeste 30 Norte 0 -- -- 31
2020-08-24 00:00:00 28.6 6 Nordeste 19 Nordeste 0 -- -- 29
2020-08-23 23:00:00 30 9 Nordeste 33 Norte 0 -- -- 28
2020-08-23 22:00:00 30.7 10 Nordeste 31 Nordeste 0 -- -- 26
2020-08-23 21:00:00 31.8 4 Norte 17 Norte 0 -- -- 26
2020-08-23 20:00:00 33.9 6 Oeste 23 Sudoeste 0 -- -- 25
2020-08-23 19:00:00 35.4 6 Oeste 27 Oeste 0 -- -- 25
2020-08-23 18:00:00 36 9 Oeste 24 Oeste 0 -- -- 24
2020-08-23 17:00:00 36 6 Noroeste 23 Noroeste 0 -- -- 24
2020-08-23 16:00:00 35.3 6 Sudoeste 18 Nordeste 0 -- -- 25
2020-08-23 15:00:00 34.5 3 Nordeste 18 Norte 0 -- -- 26
2020-08-23 14:00:00 33.1 3 Oeste 22 Sudoeste 0 -- -- 28
2020-08-23 13:00:00 31.4 3 Oeste 18 Oeste 0 -- -- 31
2020-08-23 12:00:00 28.8 4 Oeste 12 Noroeste 0 -- -- 33
2020-08-23 11:00:00 26.1 3 Oeste 11 Noroeste 0 -- -- 37
2020-08-23 10:00:00 22.5 0 Calma 6 Sudoeste 0 -- -- 42
2020-08-23 09:00:00 20.1 0 Calma 9 Este 0 -- -- 42
2020-08-23 08:00:00 20.5 2 Sudeste 6 Sudeste 0 -- -- 39
2020-08-23 07:00:00 22.2 0 Calma 8 Noroeste 0 -- -- 35
2020-08-23 06:00:00 23.7 5 Norte 23 Norte 0 -- -- 33
2020-08-23 05:00:00 24 10 Nordeste 27 Nordeste 0 -- -- 32
2020-08-23 04:00:00 24.6 8 Nordeste 32 Norte 0 -- -- 30
2020-08-23 03:00:00 25.2 13 Nordeste 41 Nordeste 0 -- -- 30
2020-08-23 02:00:00 25.7 10 Norte 37 Nordeste 0 -- -- 28
2020-08-23 01:00:00 26.4 13 Norte 39 Nordeste 0 -- -- 27
2020-08-23 00:00:00 26.9 13 Norte 36 Norte 0 -- -- 28
2020-08-22 23:00:00 28.3 14 Norte 34 Nordeste 0 -- -- 26
2020-08-22 22:00:00 28.5 5 Noroeste 19 Norte 0 -- -- 27
2020-08-22 21:00:00 30.3 6 Oeste 26 Oeste 0 -- -- 26
2020-08-22 20:00:00 32.2 9 Oeste 24 Sudoeste 0 -- -- 25
2020-08-22 19:00:00 33.9 8 Oeste 21 Oeste 0 -- -- 25
2020-08-22 18:00:00 34.5 4 Oeste 19 Oeste 0 -- -- 26
2020-08-22 17:00:00 34.4 6 Oeste 20 Oeste 0 -- -- 27
2020-08-22 16:00:00 33.7 6 Oeste 18 Oeste 0 -- -- 26
2020-08-22 15:00:00 32.3 6 Noroeste 18 Norte 0 -- -- 28
2020-08-22 14:00:00 30.5 4 Oeste 18 Oeste 0 -- -- 33
2020-08-22 13:00:00 29.5 5 Noroeste 20 Norte 0 -- -- 38
2020-08-22 12:00:00 26.6 5 Noroeste 21 Noroeste 0 -- -- 43
2020-08-22 11:00:00 23.6 6 Norte 27 Norte 0 -- -- 50
2020-08-22 10:00:00 21.2 4 Norte 19 Nordeste 0 -- -- 56
2020-08-22 09:00:00 19.2 3 Nordeste 17 Este 0 -- -- 60
2020-08-22 08:00:00 18.4 3 Nordeste 20 Norte 0 -- -- 61
2020-08-22 07:00:00 19.3 5 Norte 20 Norte 0 -- -- 60
2020-08-22 06:00:00 20.4 6 Nordeste 25 Nordeste 0 -- -- 56
2020-08-22 05:00:00 20.7 8 Este 26 Este 0 -- -- 56
2020-08-22 04:00:00 21.4 8 Este 40 Norte 0 -- -- 53
2020-08-22 03:00:00 22.4 15 Nordeste 34 Nordeste 0 -- -- 53
2020-08-22 02:00:00 22.7 5 Este 27 Sudeste 0 -- -- 57
2020-08-22 01:00:00 23.1 4 Nordeste 17 Norte 0 -- -- 57
2020-08-22 00:00:00 23.4 3 Noroeste 9 Oeste 0 -- -- 58